Time;durP1;ratioP1;P1;durP2;ratioP2;P2;SDS_P1;SDS_P2;PMS_P1;PMS_P2;Temp;Humidity;BMP_temperature;BMP_pressure;BME280_temperature;BME280_humidity;BME280_pressure;Samples;Min_cycle;Max_cycle;Signal;HPM_P1;HPM_P2
2023/08/23 00:01:03;;;;;;;8.88;6.18;;;;;;;20.96;94.39;93378.59;5055069;28;20091;-77
2023/08/23 00:03:30;;;;;;;10.35;6.47;;;;;;;20.88;94.76;93373.97;5062484;28;20064;-76
2023/08/23 00:05:58;;;;;;;8.82;7.13;;;;;;;20.86;94.07;93373.44;5052972;28;20451;-76
2023/08/23 00:08:25;;;;;;;11.60;6.60;;;;;;;20.89;94.82;93375.53;5054342;28;20455;-76
2023/08/23 00:10:54;;;;;;;11.88;7.00;;;;;;;20.76;94.42;93359.38;5056963;28;20041;-76
2023/08/23 00:13:21;;;;;;;11.18;6.88;;;;;;;20.78;94.71;93369.56;5057433;28;20103;-77
2023/08/23 00:15:48;;;;;;;11.02;7.78;;;;;;;20.74;95.30;93363.31;5053508;28;20083;-76
2023/08/23 00:18:14;;;;;;;11.10;7.00;;;;;;;20.68;95.60;93367.75;5050220;28;20594;-76
2023/08/23 00:20:41;;;;;;;11.02;7.55;;;;;;;20.65;95.19;93376.13;5052962;28;20101;-76
2023/08/23 00:23:09;;;;;;;10.00;6.82;;;;;;;20.60;95.80;93369.09;5053670;28;20452;-76
2023/08/23 00:25:36;;;;;;;9.25;6.75;;;;;;;20.59;96.45;93377.22;5059106;28;21044;-76
2023/08/23 00:28:02;;;;;;;9.80;6.72;;;;;;;20.56;96.70;93374.06;5056371;28;20053;-76
2023/08/23 00:30:29;;;;;;;8.50;6.80;;;;;;;20.54;96.38;93375.38;5061539;28;20040;-77
2023/08/23 00:32:56;;;;;;;7.60;6.38;;;;;;;20.48;96.09;93371.25;5051677;28;20045;-77
2023/08/23 00:35:23;;;;;;;9.13;6.93;;;;;;;20.54;96.28;93373.56;5053591;28;20098;-76
2023/08/23 00:37:49;;;;;;;9.00;6.60;;;;;;;20.58;96.48;93370.41;5051406;28;20391;-76
2023/08/23 00:40:20;;;;;;;9.75;6.88;;;;;;;20.51;97.17;93361.06;5052402;28;20079;-76
2023/08/23 00:42:47;;;;;;;11.07;6.78;;;;;;;20.41;96.34;93355.91;5053182;28;20139;-76
2023/08/23 00:45:13;;;;;;;12.57;7.40;;;;;;;20.27;97.70;93345.25;5052097;28;20041;-76
2023/08/23 00:47:40;;;;;;;11.30;7.38;;;;;;;20.41;97.94;93364.50;5049803;28;20041;-76
2023/08/23 00:50:08;;;;;;;8.70;6.95;;;;;;;20.37;97.61;93353.03;5054997;28;20099;-76
2023/08/23 00:52:35;;;;;;;8.75;7.25;;;;;;;20.36;97.42;93364.50;5055635;28;20094;-76
2023/08/23 00:55:02;;;;;;;8.98;6.85;;;;;;;20.39;97.82;93352.75;5059808;28;20048;-76
2023/08/23 00:57:31;;;;;;;8.68;7.30;;;;;;;20.32;97.21;93352.28;5055391;28;20048;-76
2023/08/23 00:59:58;;;;;;;8.75;6.55;;;;;;;20.36;98.03;93355.91;5058868;28;20045;-76
2023/08/23 01:02:24;;;;;;;9.98;7.20;;;;;;;20.31;97.36;93359.31;5055922;28;20533;-76
2023/08/23 01:04:51;;;;;;;8.13;6.80;;;;;;;20.27;97.83;93358.31;5062768;28;20175;-76
2023/08/23 01:07:26;;;;;;;12.20;7.40;;;;;;;20.19;98.41;93343.19;5056434;28;20041;-76
2023/08/23 01:09:58;;;;;;;10.45;7.15;;;;;;;20.21;98.35;93354.91;5060725;28;20045;-76
2023/08/23 01:12:36;;;;;;;10.95;7.45;;;;;;;20.17;98.96;93364.31;5067055;28;20121;-76
2023/08/23 01:15:06;;;;;;;10.30;7.20;;;;;;;20.08;99.42;93361.47;5058198;28;20087;-76
2023/08/23 01:17:36;;;;;;;9.43;7.38;;;;;;;20.03;100.00;93362.28;5050942;28;20049;-76
2023/08/23 01:20:04;;;;;;;9.27;7.65;;;;;;;19.99;100.00;93363.84;5049076;28;20053;-76
2023/08/23 01:22:33;;;;;;;9.80;7.25;;;;;;;19.95;100.00;93365.38;5051255;28;20501;-76
2023/08/23 01:25:02;;;;;;;9.95;7.28;;;;;;;19.94;100.00;93369.03;5052645;28;20052;-76
2023/08/23 01:27:29;;;;;;;9.52;7.43;;;;;;;19.83;100.00;93355.25;5051262;28;20040;-76
2023/08/23 01:29:55;;;;;;;9.77;7.93;;;;;;;19.78;100.00;93355.25;5050545;28;20366;-76
2023/08/23 01:32:32;;;;;;;10.82;7.38;;;;;;;19.80;100.00;93363.59;5056635;28;20090;-76
2023/08/23 01:35:07;;;;;;;10.13;7.72;;;;;;;19.78;100.00;93357.88;5052792;28;20054;-76
2023/08/23 01:37:35;;;;;;;14.43;8.25;;;;;;;19.79;100.00;93356.03;5050919;28;20479;-76
2023/08/23 01:40:05;;;;;;;10.32;7.45;;;;;;;19.80;100.00;93357.59;5055630;28;20090;-76
2023/08/23 01:42:32;;;;;;;9.68;8.00;;;;;;;19.77;100.00;93359.69;5052211;28;20045;-76
2023/08/23 01:44:58;;;;;;;8.90;7.13;;;;;;;19.81;100.00;93361.78;5049450;28;20037;-76
2023/08/23 01:47:25;;;;;;;10.23;7.82;;;;;;;19.81;100.00;93365.16;5049508;28;20057;-76
2023/08/23 01:49:52;;;;;;;11.63;7.70;;;;;;;19.71;100.00;93352.91;5053328;28;20551;-76
2023/08/23 01:52:19;;;;;;;10.32;7.78;;;;;;;19.74;100.00;93355.00;5049689;28;20056;-77
2023/08/23 01:54:45;;;;;;;9.20;7.20;;;;;;;19.70;100.00;93364.41;5048663;28;20094;-76
2023/08/23 01:57:13;;;;;;;9.10;7.38;;;;;;;19.68;100.00;93358.66;5055886;28;20074;-77
2023/08/23 01:59:40;;;;;;;10.82;8.15;;;;;;;19.66;100.00;93355.53;5061042;28;20045;-76
2023/08/23 02:02:07;;;;;;;9.80;7.43;;;;;;;19.62;100.00;93357.88;5048556;28;20095;-77
2023/08/23 02:04:33;;;;;;;10.32;7.57;;;;;;;19.62;100.00;93355.28;5052305;28;20045;-77
2023/08/23 02:07:00;;;;;;;8.63;7.30;;;;;;;19.50;100.00;93358.13;5048546;28;20048;-77
2023/08/23 02:09:28;;;;;;;11.10;8.00;;;;;;;19.51;100.00;93356.31;5051458;28;20119;-77
2023/08/23 02:11:54;;;;;;;12.75;7.75;;;;;;;19.54;100.00;93365.44;5057158;28;20049;-77
2023/08/23 02:14:23;;;;;;;10.30;7.97;;;;;;;19.50;100.00;93346.97;5047500;28;20033;-82
2023/08/23 02:16:49;;;;;;;11.50;8.25;;;;;;;19.55;100.00;93353.97;5047628;28;20497;-77
2023/08/23 02:19:16;;;;;;;9.88;7.20;;;;;;;19.47;100.00;93344.88;5061341;28;20082;-77
2023/08/23 02:21:43;;;;;;;10.32;7.40;;;;;;;19.45;100.00;93350.31;5049279;28;20061;-77
2023/08/23 02:24:09;;;;;;;11.75;7.45;;;;;;;19.45;100.00;93354.78;5047596;28;20045;-77
2023/08/23 02:26:36;;;;;;;10.23;7.50;;;;;;;19.43;100.00;93347.22;5057210;28;20052;-77
2023/08/23 02:29:03;;;;;;;16.52;9.55;;;;;;;19.39;100.00;93348.00;5049426;28;20049;-77
2023/08/23 02:31:31;;;;;;;10.18;7.90;;;;;;;19.38;100.00;93342.00;5048963;28;20546;-77
2023/08/23 02:33:58;;;;;;;11.18;7.82;;;;;;;19.43;100.00;93349.03;5050666;28;20091;-77
2023/08/23 02:36:25;;;;;;;11.35;8.35;;;;;;;19.45;100.00;93354.78;5054405;28;20049;-77
2023/08/23 02:38:51;;;;;;;10.68;7.90;;;;;;;19.40;100.00;93357.38;5047924;28;20398;-77
2023/08/23 02:41:18;;;;;;;14.55;8.25;;;;;;;19.40;100.00;93354.78;5047402;28;20501;-77
2023/08/23 02:43:45;;;;;;;10.93;8.25;;;;;;;19.36;100.00;93349.31;5047972;28;20045;-77
2023/08/23 02:46:11;;;;;;;12.43;7.53;;;;;;;19.38;100.00;93355.03;5058941;28;20398;-77
2023/08/23 02:48:40;;;;;;;11.10;7.95;;;;;;;19.37;100.00;93350.88;5052761;28;20044;-77
2023/08/23 02:51:06;;;;;;;10.10;7.70;;;;;;;19.31;100.00;93347.47;5049513;28;20049;-77
2023/08/23 02:53:33;;;;;;;9.07;7.68;;;;;;;19.32;100.00;93345.66;5049266;28;20048;-77
2023/08/23 02:56:00;;;;;;;10.82;8.85;;;;;;;19.27;100.00;93340.44;5050342;28;20107;-77
2023/08/23 02:58:27;;;;;;;9.63;7.75;;;;;;;19.29;100.00;93348.75;5049074;28;20048;-77
2023/08/23 03:00:53;;;;;;;14.23;8.32;;;;;;;19.26;100.00;93352.69;5047291;28;20044;-77
2023/08/23 03:03:20;;;;;;;10.13;7.78;;;;;;;19.22;100.00;93349.03;5049132;28;20049;-77
2023/08/23 03:05:54;;;;;;;10.50;7.32;;;;;;;19.16;100.00;93340.44;5048171;28;20523;-77
2023/08/23 03:08:21;;;;;;;10.80;8.18;;;;;;;19.11;100.00;93332.63;5058772;28;20131;-77
2023/08/23 03:10:48;;;;;;;10.73;8.15;;;;;;;19.22;100.00;93349.81;5054161;28;20095;-77
2023/08/23 03:13:15;;;;;;;10.80;8.43;;;;;;;19.23;100.00;93348.00;5057729;28;20037;-77
2023/08/23 03:15:41;;;;;;;11.05;7.88;;;;;;;19.22;100.00;93352.41;5047470;28;20045;-78
2023/08/23 03:18:08;;;;;;;16.35;7.78;;;;;;;19.17;100.00;93349.81;5046441;28;20048;-77
2023/08/23 03:20:35;;;;;;;10.77;7.50;;;;;;;19.18;100.00;93350.59;5058457;28;20045;-78
2023/08/23 03:23:03;;;;;;;10.57;7.90;;;;;;;19.18;100.00;93350.59;5048934;28;20457;-78
2023/08/23 03:25:32;;;;;;;12.98;8.38;;;;;;;19.17;100.00;93347.19;5055519;28;20045;-78
2023/08/23 03:27:58;;;;;;;12.73;8.35;;;;;;;19.07;100.00;93342.00;5048295;28;20053;-77
2023/08/23 03:30:25;;;;;;;11.18;7.80;;;;;;;19.08;100.00;93351.38;5046708;28;20467;-77
2023/08/23 03:32:52;;;;;;;13.52;8.60;;;;;;;19.04;100.00;93351.13;5051101;28;20053;-78
2023/08/23 03:35:19;;;;;;;11.60;8.32;;;;;;;19.02;100.00;93347.94;5053164;28;20087;-77
2023/08/23 03:37:45;;;;;;;13.57;8.57;;;;;;;18.98;100.00;93356.53;5054936;28;20110;-78
2023/08/23 03:40:13;;;;;;;13.38;9.35;;;;;;;18.94;100.00;93356.28;5047485;28;20472;-78
2023/08/23 03:42:40;;;;;;;13.88;8.48;;;;;;;18.88;100.00;93349.50;5047407;28;20048;-78
2023/08/23 03:45:08;;;;;;;12.15;8.80;;;;;;;18.85;100.00;93347.41;5058250;28;20049;-78
2023/08/23 03:47:35;;;;;;;12.38;9.00;;;;;;;18.86;100.00;93356.78;5049357;28;20463;-78
2023/08/23 03:50:02;;;;;;;14.02;9.15;;;;;;;18.87;100.00;93353.13;5047242;28;20057;-78
2023/08/23 03:52:29;;;;;;;11.95;8.23;;;;;;;18.83;100.00;93355.47;5047330;28;20041;-78
2023/08/23 03:54:56;;;;;;;13.65;7.93;;;;;;;18.83;100.00;93353.66;5047172;28;20049;-78
2023/08/23 03:57:24;;;;;;;12.18;8.43;;;;;;;18.81;100.00;93350.53;5048586;28;20041;-77
2023/08/23 03:59:51;;;;;;;14.80;8.30;;;;;;;18.83;100.00;93358.84;5051224;28;20049;-78
2023/08/23 04:02:17;;;;;;;12.15;8.55;;;;;;;18.85;100.00;93356.00;5051475;28;20110;-76
2023/08/23 04:04:44;;;;;;;14.38;8.43;;;;;;;18.70;100.00;93348.94;5046788;28;20455;-76
2023/08/23 04:07:14;;;;;;;11.45;9.00;;;;;;;18.74;100.00;93362.22;5050420;28;20064;-76
2023/08/23 04:09:41;;;;;;;13.52;8.73;;;;;;;18.74;100.00;93359.63;5056398;28;20493;-77
2023/08/23 04:12:08;;;;;;;11.55;8.55;;;;;;;18.72;100.00;93359.09;5052244;28;20044;-76
2023/08/23 04:14:39;;;;;;;15.02;8.95;;;;;;;18.74;100.00;93359.63;5054393;28;20504;-76
2023/08/23 04:17:05;;;;;;;16.20;8.70;;;;;;;18.76;100.00;93357.53;5058678;28;20083;-77
2023/08/23 04:19:32;;;;;;;13.52;8.70;;;;;;;18.79;100.00;93354.44;5053321;28;20118;-77
2023/08/23 04:21:59;;;;;;;14.68;9.80;;;;;;;18.87;100.00;93355.72;5053372;28;20044;-77
2023/08/23 04:24:26;;;;;;;17.02;9.73;;;;;;;18.92;100.00;93358.34;5051228;28;20493;-77
2023/08/23 04:26:52;;;;;;;18.52;8.77;;;;;;;18.96;100.00;93356.78;5052079;28;20490;-77
2023/08/23 04:29:19;;;;;;;15.18;8.27;;;;;;;18.99;100.00;93356.28;5051009;28;20052;-77
2023/08/23 04:31:47;;;;;;;14.45;9.35;;;;;;;18.99;100.00;93364.09;5050652;28;20045;-76
2023/08/23 04:34:14;;;;;;;21.15;10.25;;;;;;;19.04;100.00;93365.94;5052193;28;20490;-76
2023/08/23 04:36:40;;;;;;;14.73;9.60;;;;;;;19.01;100.00;93353.41;5053096;28;20084;-77
2023/08/23 04:39:07;;;;;;;13.43;9.07;;;;;;;19.10;100.00;93364.91;5052315;28;20493;-77
2023/08/23 04:41:34;;;;;;;17.42;8.70;;;;;;;19.13;100.00;93374.81;5054681;28;20803;-77
2023/08/23 04:44:01;;;;;;;11.18;8.30;;;;;;;19.13;100.00;93363.59;5056404;28;20049;-77
2023/08/23 04:46:27;;;;;;;16.00;9.75;;;;;;;19.17;100.00;93373.25;5052506;28;20090;-76
2023/08/23 04:48:55;;;;;;;15.00;9.13;;;;;;;19.17;100.00;93369.88;5055664;28;20843;-76
2023/08/23 04:51:23;;;;;;;13.07;8.15;;;;;;;19.24;100.00;93378.19;5055480;28;20045;-76
2023/08/23 04:53:50;;;;;;;14.80;9.07;;;;;;;19.28;100.00;93383.66;5055902;28;20116;-76
2023/08/23 04:56:16;;;;;;;13.27;9.00;;;;;;;19.31;100.00;93380.56;5053562;28;20048;-77
2023/08/23 04:58:43;;;;;;;14.90;9.32;;;;;;;19.32;100.00;93377.69;5056913;28;20052;-76
2023/08/23 05:01:10;;;;;;;13.80;9.20;;;;;;;19.35;100.00;93377.16;5056125;28;20102;-78
2023/08/23 05:03:37;;;;;;;12.65;9.48;;;;;;;19.45;100.00;93378.97;5048246;28;20102;-77
2023/08/23 05:06:05;;;;;;;17.20;9.52;;;;;;;19.52;100.00;93378.72;5056740;28;20057;-77
2023/08/23 05:08:34;;;;;;;13.63;8.77;;;;;;;19.61;100.00;93382.38;5056432;28;20048;-78
2023/08/23 05:11:01;;;;;;;15.63;9.82;;;;;;;19.66;100.00;93381.59;5055781;28;20122;-77
2023/08/23 05:13:27;;;;;;;14.88;8.93;;;;;;;19.74;100.00;93375.84;5051874;28;20756;-78
2023/08/23 05:15:55;;;;;;;13.65;8.73;;;;;;;19.82;100.00;93373.75;5055286;28;20342;-77
2023/08/23 05:18:23;;;;;;;13.70;9.63;;;;;;;19.69;100.00;93343.78;5053420;28;20052;-77
2023/08/23 05:20:54;;;;;;;14.20;9.23;;;;;;;19.94;100.00;93370.88;5053178;28;20592;-79
2023/08/23 05:23:22;;;;;;;14.90;9.35;;;;;;;19.96;100.00;93360.97;5055934;28;20489;-78
2023/08/23 05:25:50;;;;;;;13.32;9.45;;;;;;;20.13;100.00;93371.88;5051373;28;20099;-77
2023/08/23 05:28:18;;;;;;;15.88;9.73;;;;;;;20.21;100.00;93375.00;5054792;28;20045;-77
2023/08/23 05:30:44;;;;;;;12.48;9.52;;;;;;;20.35;100.00;93375.19;5055106;28;20071;-77
2023/08/23 05:33:12;;;;;;;16.13;9.18;;;;;;;20.47;100.00;93373.09;5053615;28;20538;-76
2023/08/23 05:35:40;;;;;;;16.73;11.90;;;;;;;20.40;100.00;93369.97;5050933;28;20134;-76
2023/08/23 05:38:06;;;;;;;16.25;10.55;;;;;;;20.51;100.00;93365.50;5053831;28;20052;-76
2023/08/23 05:40:34;;;;;;;13.38;10.25;;;;;;;20.61;100.00;93362.06;5048968;28;20086;-76
2023/08/23 05:43:01;;;;;;;13.05;9.75;;;;;;;20.68;100.00;93371.16;5052239;28;20098;-77
2023/08/23 05:45:28;;;;;;;17.75;10.25;;;;;;;20.82;100.00;93366.13;5050457;28;20052;-77
2023/08/23 05:47:55;;;;;;;14.43;8.73;;;;;;;20.94;100.00;93368.44;5052815;28;20815;-78
2023/08/23 05:50:22;;;;;;;16.55;8.98;;;;;;;21.06;100.00;93362.09;5049955;28;20051;-77
2023/08/23 05:52:48;;;;;;;13.20;8.93;;;;;;;21.21;100.00;93367.22;5059609;28;20098;-77
2023/08/23 05:55:14;;;;;;;13.02;9.60;;;;;;;21.33;99.20;93359.03;5049360;28;20053;-76
2023/08/23 05:57:42;;;;;;;;;;;;;;;21.57;99.91;93366.16;5048398;28;20056;-77
2023/08/23 06:00:10;;;;;;;11.27;8.75;;;;;;;21.62;98.83;93360.88;5051774;28;19920;-77
2023/08/23 06:02:37;;;;;;;11.85;9.00;;;;;;;21.71;97.97;93355.88;5051875;28;20096;-77
2023/08/23 06:05:07;;;;;;;12.57;9.25;;;;;;;21.92;97.68;93370.56;5049182;28;20041;-77
2023/08/23 06:07:34;;;;;;;11.60;8.70;;;;;;;21.98;96.43;93372.09;5049029;28;20098;-76
2023/08/23 06:10:01;;;;;;;12.80;8.73;;;;;;;22.10;95.83;93371.72;5048252;28;20090;-77
2023/08/23 06:12:28;;;;;;;14.40;9.98;;;;;;;22.05;95.14;93374.38;5049881;28;20575;-76
2023/08/23 06:14:56;;;;;;;14.93;9.18;;;;;;;22.25;95.70;93373.38;5047984;28;20107;-76
2023/08/23 06:17:25;;;;;;;13.80;8.90;;;;;;;22.42;94.56;93372.94;5056129;28;20398;-76
2023/08/23 06:19:51;;;;;;;14.82;9.40;;;;;;;22.59;92.52;93362.00;5051424;28;20841;-76
2023/08/23 06:22:18;;;;;;;14.02;9.38;;;;;;;22.81;91.77;93364.09;5051182;28;20845;-76
2023/08/23 06:24:45;;;;;;;11.57;8.15;;;;;;;22.94;90.53;93367.84;5053000;28;20045;-76
2023/08/23 06:27:12;;;;;;;16.30;8.98;;;;;;;23.11;90.53;93365.78;5049186;28;20617;-76
2023/08/23 06:29:39;;;;;;;13.43;9.63;;;;;;;23.28;90.28;93365.28;5049443;28;20049;-76
2023/08/23 06:32:08;;;;;;;19.48;8.98;;;;;;;23.46;88.34;93363.72;5056879;28;20110;-76
2023/08/23 06:34:35;;;;;;;14.05;8.82;;;;;;;23.64;87.25;93369.97;5047824;28;20919;-76
2023/08/23 06:37:02;;;;;;;13.82;8.50;;;;;;;23.82;86.18;93368.38;5052072;28;20044;-76
2023/08/23 06:39:29;;;;;;;18.08;9.38;;;;;;;23.86;85.39;93331.84;5051494;28;20098;-76
2023/08/23 06:41:56;;;;;;;16.02;9.05;;;;;;;24.23;83.13;93361.63;5050956;28;20045;-77
2023/08/23 06:44:23;;;;;;;16.42;9.20;;;;;;;24.25;82.11;93361.34;5048363;28;20041;-76
2023/08/23 06:46:49;;;;;;;16.75;8.75;;;;;;;24.42;81.87;93361.53;5058110;28;20445;-77
2023/08/23 06:49:17;;;;;;;15.13;8.82;;;;;;;24.66;81.15;93370.25;5058947;28;20122;-76
2023/08/23 06:51:44;;;;;;;20.25;8.98;;;;;;;24.74;79.28;93374.03;5051542;28;20114;-76
2023/08/23 06:54:11;;;;;;;15.85;8.07;;;;;;;24.95;77.97;93367.31;5056804;28;20099;-77
2023/08/23 06:56:37;;;;;;;12.45;7.88;;;;;;;25.07;76.30;93372.03;5052418;28;20551;-76
2023/08/23 06:59:04;;;;;;;10.15;7.00;;;;;;;25.20;75.98;93375.72;5052219;28;20053;-76
2023/08/23 07:01:31;;;;;;;15.32;8.30;;;;;;;25.49;75.01;93376.34;5049200;28;20633;-77
2023/08/23 07:03:58;;;;;;;8.52;6.90;;;;;;;25.65;73.30;93376.81;5049950;28;20045;-77
2023/08/23 07:06:26;;;;;;;15.70;8.18;;;;;;;25.87;72.93;93381.25;5052388;28;20109;-76
2023/08/23 07:08:52;;;;;;;9.93;7.50;;;;;;;26.15;71.47;93375.81;5057845;28;20049;-77
2023/08/23 07:11:19;;;;;;;10.13;7.28;;;;;;;26.46;72.33;93378.72;5054427;28;20382;-76
2023/08/23 07:13:46;;;;;;;12.02;7.35;;;;;;;26.73;69.85;93382.19;5048962;28;20049;-76
2023/08/23 07:16:13;;;;;;;11.82;7.78;;;;;;;27.07;66.85;93378.06;5052001;28;20132;-77
2023/08/23 07:18:39;;;;;;;9.13;6.80;;;;;;;27.37;66.94;93377.44;5048466;28;20045;-76
2023/08/23 07:21:07;;;;;;;8.77;7.65;;;;;;;27.65;65.25;93377.13;5047760;28;20110;-77
2023/08/23 07:23:35;;;;;;;10.65;6.38;;;;;;;27.92;64.32;93377.84;5052975;28;20084;-77
2023/08/23 07:26:02;;;;;;;7.70;6.28;;;;;;;27.93;59.98;93358.25;5048651;28;20048;-76
2023/08/23 07:28:29;;;;;;;9.23;6.70;;;;;;;28.32;62.42;93367.00;5053325;28;20052;-76
2023/08/23 07:30:57;;;;;;;9.85;6.97;;;;;;;28.65;61.50;93376.91;5050558;28;20091;-76
2023/08/23 07:33:24;;;;;;;12.50;7.10;;;;;;;28.87;59.89;93367.19;5048569;28;20127;-76
2023/08/23 07:35:56;;;;;;;8.68;6.20;;;;;;;29.13;59.27;93370.72;5048386;28;20057;-77
2023/08/23 07:38:23;;;;;;;11.10;6.35;;;;;;;29.21;58.38;93361.97;5050476;28;20135;-77
2023/08/23 07:40:51;;;;;;;10.10;6.55;;;;;;;29.50;57.90;93370.91;5047818;28;20045;-77
2023/08/23 07:43:18;;;;;;;11.85;6.50;;;;;;;29.57;56.02;93365.84;5050011;28;20049;-77
2023/08/23 07:45:45;;;;;;;12.88;6.82;;;;;;;29.67;57.90;93369.97;5060451;28;20044;-77
2023/08/23 07:48:11;;;;;;;9.95;6.00;;;;;;;29.93;56.37;93362.84;5053367;28;20086;-77
2023/08/23 07:50:38;;;;;;;8.70;6.55;;;;;;;30.20;54.43;93369.44;5052631;28;20550;-77
2023/08/23 07:53:05;;;;;;;7.85;6.43;;;;;;;30.11;53.30;93366.88;5054720;28;20067;-77
2023/08/23 07:55:31;;;;;;;10.80;6.53;;;;;;;30.04;53.68;93366.63;5051080;28;20045;-77
2023/08/23 07:58:00;;;;;;;10.65;6.65;;;;;;;30.38;55.12;93370.00;5052861;28;20045;-76
2023/08/23 08:00:27;;;;;;;8.30;6.32;;;;;;;30.30;53.67;93370.84;5052445;28;20143;-77
2023/08/23 08:02:53;;;;;;;8.32;5.90;;;;;;;30.41;51.49;93368.56;5053370;28;20463;-77
2023/08/23 08:05:20;;;;;;;8.38;6.65;;;;;;;30.69;52.10;93367.09;5051791;28;20048;-77
2023/08/23 08:07:47;;;;;;;7.05;6.03;;;;;;;30.75;50.86;93357.81;5052216;28;20074;-76
2023/08/23 08:10:14;;;;;;;8.82;6.10;;;;;;;30.35;51.11;93365.34;5053891;28;20050;-77
2023/08/23 08:12:40;;;;;;;10.32;6.45;;;;;;;30.35;53.43;93361.91;5053638;28;20049;-77
2023/08/23 08:15:09;;;;;;;9.45;6.60;;;;;;;30.72;51.91;93350.56;5054999;28;20130;-77
2023/08/23 08:17:36;;;;;;;9.43;5.80;;;;;;;30.76;50.73;93351.41;5056124;28;20048;-77
2023/08/23 08:20:06;;;;;;;8.73;5.60;;;;;;;31.09;49.02;93361.06;5052940;28;20059;-78
2023/08/23 08:22:33;;;;;;;9.50;5.50;;;;;;;31.15;49.48;93353.63;5050999;28;20531;-77
2023/08/23 08:25:00;;;;;;;7.82;5.93;;;;;;;31.45;51.33;93350.66;5052705;28;20106;-77
2023/08/23 08:27:27;;;;;;;8.57;6.40;;;;;;;31.45;50.77;93350.66;5055884;28;20094;-77
2023/08/23 08:29:53;;;;;;;10.82;6.45;;;;;;;31.65;49.86;93343.59;5052184;28;20052;-77
2023/08/23 08:32:21;;;;;;;13.13;5.55;;;;;;;31.48;48.69;93343.91;5055570;28;20569;-77
2023/08/23 08:34:48;;;;;;;9.30;6.13;;;;;;;31.91;50.00;93346.91;5051155;28;20099;-77
2023/08/23 08:37:15;;;;;;;10.30;5.18;;;;;;;32.03;49.15;93349.50;5049530;28;20048;-78
2023/08/23 08:39:42;;;;;;;8.30;6.25;;;;;;;32.19;48.98;93349.47;5055373;28;20052;-78
2023/08/23 08:42:10;;;;;;;8.30;5.95;;;;;;;31.67;48.24;93357.31;5049836;28;20049;-78
2023/08/23 08:44:37;;;;;;;9.93;5.78;;;;;;;31.45;49.47;93334.75;5059006;28;20056;-78
2023/08/23 08:47:04;;;;;;;8.55;6.10;;;;;;;31.60;49.46;93349.16;5050605;28;20045;-77
2023/08/23 08:49:32;;;;;;;9.88;5.88;;;;;;;31.90;49.18;93340.84;5051470;28;20041;-77
2023/08/23 08:51:59;;;;;;;10.30;5.82;;;;;;;32.34;47.09;93347.91;5058727;28;20044;-77
2023/08/23 08:54:28;;;;;;;8.48;5.55;;;;;;;32.61;45.94;93340.19;5054942;28;20118;-77
2023/08/23 08:56:55;;;;;;;8.65;5.50;;;;;;;31.96;47.46;93338.69;5053260;28;20056;-77
2023/08/23 08:59:22;;;;;;;12.50;6.38;;;;;;;30.97;48.91;93334.56;5059004;28;20106;-78
2023/08/23 09:01:50;;;;;;;14.18;5.85;;;;;;;31.07;48.05;93342.81;5049465;28;20493;-78
2023/08/23 09:04:17;;;;;;;8.40;5.80;;;;;;;31.20;47.21;93342.78;5050409;28;20448;-78
2023/08/23 09:06:46;;;;;;;6.72;5.82;;;;;;;31.28;48.17;93331.28;5050658;28;20057;-77
2023/08/23 09:09:13;;;;;;;6.57;5.63;;;;;;;31.62;47.00;93333.66;5054257;28;20545;-77
2023/08/23 09:11:40;;;;;;;9.90;5.68;;;;;;;31.82;44.98;93325.78;5050948;28;20106;-77
2023/08/23 09:14:14;;;;;;;11.18;6.10;;;;;;;31.45;47.51;93324.13;5054771;28;20056;-77
2023/08/23 09:16:41;;;;;;;8.85;5.53;;;;;;;31.72;45.66;93319.13;5055037;28;20133;-77
2023/08/23 09:19:09;;;;;;;9.52;6.30;;;;;;;32.17;45.84;93317.19;5054747;28;20052;-77
2023/08/23 09:21:36;;;;;;;11.73;5.80;;;;;;;32.72;46.24;93310.41;5052126;28;20146;-77
2023/08/23 09:24:05;;;;;;;10.07;6.10;;;;;;;33.09;43.10;93317.22;5050291;28;20508;-78
2023/08/23 09:26:31;;;;;;;7.07;5.32;;;;;;;33.22;44.03;93317.84;5052237;28;20051;-78
2023/08/23 09:28:58;;;;;;;7.95;4.93;;;;;;;33.65;42.46;93318.63;5050068;28;20139;-77
2023/08/23 09:31:26;;;;;;;7.70;5.28;;;;;;;33.92;42.11;93305.38;5050357;28;21328;-77
2023/08/23 09:33:53;;;;;;;6.57;4.85;;;;;;;34.02;40.17;93305.91;5049593;28;20076;-78
2023/08/23 09:36:28;;;;;;;10.13;6.20;;;;;;;33.60;40.84;93302.97;5051586;28;20049;-77
2023/08/23 09:38:55;;;;;;;7.80;5.75;;;;;;;34.08;42.55;93299.97;5049912;28;20167;-78
2023/08/23 09:41:23;;;;;;;8.73;5.80;;;;;;;34.50;41.10;93302.81;5051294;28;20060;-78
2023/08/23 09:43:54;;;;;;;11.93;7.40;;;;;;;34.55;41.37;93297.19;5050181;28;20582;-78
2023/08/23 09:46:26;;;;;;;8.85;6.65;;;;;;;34.36;41.05;93288.19;5050428;28;20044;-78
2023/08/23 09:48:53;;;;;;;7.78;6.07;;;;;;;33.62;41.26;93281.28;5053399;28;20121;-78
2023/08/23 09:51:24;;;;;;;7.95;6.60;;;;;;;33.91;41.62;93285.19;5049323;28;20055;-77
2023/08/23 09:53:55;;;;;;;8.40;6.53;;;;;;;33.69;42.50;93289.44;5052374;28;20054;-78
2023/08/23 09:56:23;;;;;;;8.73;6.55;;;;;;;33.69;42.00;93271.53;5050165;28;20053;-76
2023/08/23 09:58:51;;;;;;;8.43;6.53;;;;;;;33.79;42.19;93274.72;5056851;28;20044;-76
2023/08/23 10:01:18;;;;;;;10.20;6.07;;;;;;;33.74;41.54;93278.47;5051434;28;20102;-76
2023/08/23 10:03:44;;;;;;;9.90;5.78;;;;;;;34.12;41.39;93276.03;5059143;28;20040;-76
2023/08/23 10:06:11;;;;;;;8.38;5.80;;;;;;;34.05;40.37;93279.34;5050158;28;20456;-76
2023/08/23 10:08:39;;;;;;;8.32;5.90;;;;;;;34.22;39.42;93272.75;5052331;28;20079;-76
2023/08/23 10:11:06;;;;;;;10.20;6.38;;;;;;;34.24;40.20;93275.81;5051305;28;20444;-76
2023/08/23 10:13:36;;;;;;;8.27;5.60;;;;;;;34.01;38.04;93272.41;5050739;28;20101;-77
2023/08/23 10:16:05;;;;;;;6.47;5.05;;;;;;;33.78;37.95;93259.88;5049228;28;20052;-76
2023/08/23 10:18:33;;;;;;;7.03;5.30;;;;;;;33.85;37.70;93271.41;5050723;28;20056;-76
2023/08/23 10:21:02;;;;;;;5.78;4.72;;;;;;;34.31;37.18;93277.03;5050592;28;20107;-76
2023/08/23 10:23:29;;;;;;;8.35;5.03;;;;;;;34.71;37.81;93278.34;5051656;28;20060;-76
2023/08/23 10:25:56;;;;;;;6.72;5.10;;;;;;;34.90;37.18;93277.44;5054103;28;20049;-76
2023/08/23 10:28:23;;;;;;;9.52;4.93;;;;;;;35.38;35.21;93262.72;5055060;28;20132;-76
2023/08/23 10:30:52;;;;;;;5.93;4.53;;;;;;;35.41;34.51;93267.31;5048233;28;20877;-76
2023/08/23 10:33:21;;;;;;;9.35;5.10;;;;;;;35.88;33.94;93266.97;5049930;28;20037;-76
2023/08/23 10:35:48;;;;;;;6.07;5.47;;;;;;;35.38;32.95;93253.91;5061290;28;20150;-76
2023/08/23 10:38:15;;;;;;;6.38;4.80;;;;;;;35.74;33.52;93264.97;5049068;28;20134;-76
2023/08/23 10:40:44;;;;;;;7.28;4.85;;;;;;;35.64;33.65;93257.63;5053198;28;20053;-76
2023/08/23 10:43:13;;;;;;;6.03;4.85;;;;;;;35.97;35.37;93235.34;5050219;28;20045;-76
2023/08/23 10:45:52;;;;;;;6.00;4.57;;;;;;;36.47;32.93;93254.75;5048597;28;20451;-76
2023/08/23 10:48:21;;;;;;;5.80;4.65;;;;;;;36.90;32.88;93254.97;5052327;28;20143;-76
2023/08/23 10:50:48;;;;;;;6.85;5.32;;;;;;;37.11;31.26;93247.41;5050808;28;20060;-76
2023/08/23 10:53:16;;;;;;;10.95;4.90;;;;;;;36.95;32.79;93235.09;5049796;28;20183;-76
2023/08/23 10:55:43;;;;;;;6.20;4.60;;;;;;;37.25;30.53;93236.72;5048338;28;20095;-76
2023/08/23 10:58:10;;;;;;;5.20;4.22;;;;;;;37.49;31.60;93245.19;5050208;28;20076;-76
2023/08/23 11:00:37;;;;;;;5.93;4.18;;;;;;;36.47;30.40;93233.38;5047826;28;20049;-76
2023/08/23 11:03:06;;;;;;;7.30;4.40;;;;;;;36.04;31.87;93226.59;5048977;28;20049;-76
2023/08/23 11:05:33;;;;;;;7.32;5.05;;;;;;;35.37;32.81;93234.47;5050657;28;20102;-76
2023/08/23 11:08:00;;;;;;;6.57;4.43;;;;;;;35.50;32.55;93231.53;5049025;28;20094;-76
2023/08/23 11:10:27;;;;;;;6.22;4.70;;;;;;;35.21;33.36;93221.34;5049848;28;20090;-76
2023/08/23 11:12:54;;;;;;;6.03;4.60;;;;;;;35.23;33.50;93224.44;5049706;28;20053;-76
2023/08/23 11:15:21;;;;;;;8.02;4.80;;;;;;;35.27;32.57;93225.22;5056016;28;20105;-76
2023/08/23 11:17:48;;;;;;;5.95;4.70;;;;;;;34.32;33.02;93215.38;5056415;28;20611;-76
2023/08/23 11:20:17;;;;;;;5.75;4.30;;;;;;;34.24;33.61;93222.50;5061262;28;20060;-76
2023/08/23 11:22:44;;;;;;;7.32;4.28;;;;;;;34.01;33.87;93225.19;5058622;28;20049;-75
2023/08/23 11:25:11;;;;;;;8.40;5.10;;;;;;;34.10;34.38;93203.63;5063825;28;20099;-76